createdAt,value
2023-02-16T00:00:08.038Z,16.93
2023-02-16T00:02:34.658Z,15.30
2023-02-16T00:05:01.281Z,20.90
2023-02-16T00:07:27.766Z,21.87
2023-02-16T00:09:54.379Z,20.27
2023-02-16T00:12:39.862Z,18.40
2023-02-16T00:15:15.967Z,18.13
2023-02-16T00:17:42.767Z,14.60
2023-02-16T00:20:18.467Z,14.87
2023-02-16T00:22:44.962Z,18.20
2023-02-16T00:25:11.569Z,19.03
2023-02-16T00:27:38.177Z,18.90
2023-02-16T00:30:14.715Z,21.13
2023-02-16T00:32:44.180Z,22.47
2023-02-16T00:35:15.207Z,17.47
2023-02-16T00:37:42.225Z,21.17
2023-02-16T00:40:09.241Z,21.00
2023-02-16T00:42:35.807Z,19.57
2023-02-16T00:45:02.340Z,15.63
2023-02-16T00:47:29.193Z,18.07
2023-02-16T00:49:56.863Z,19.00
2023-02-16T00:52:30.580Z,20.67
2023-02-16T00:54:57.621Z,18.50
2023-02-16T00:57:25.236Z,18.73
2023-02-16T00:59:57.058Z,20.40
2023-02-16T01:02:23.704Z,17.83
2023-02-16T01:04:50.362Z,20.87
2023-02-16T01:07:41.883Z,20.60
2023-02-16T01:10:27.412Z,19.63
2023-02-16T01:12:53.905Z,30.83
2023-02-16T01:15:22.816Z,21.00
2023-02-16T01:17:49.625Z,20.40
2023-02-16T01:20:17.773Z,20.10
2023-02-16T01:22:44.304Z,17.50
2023-02-16T01:25:11.043Z,24.73
2023-02-16T01:27:38.214Z,19.43
2023-02-16T01:30:06.417Z,19.90
2023-02-16T01:32:33.322Z,25.70
2023-02-16T01:34:59.895Z,22.33
2023-02-16T01:37:26.471Z,18.97
2023-02-16T01:39:52.947Z,21.17
2023-02-16T01:42:55.178Z,19.07
2023-02-16T01:45:34.704Z,23.03
2023-02-16T01:48:11.908Z,21.93
2023-02-16T01:50:45.069Z,19.10
2023-02-16T01:53:19.788Z,18.33
2023-02-16T01:55:48.132Z,20.40
2023-02-16T01:58:17.030Z,23.07
2023-02-16T02:00:49.639Z,28.67
2023-02-16T02:03:46.374Z,21.43
2023-02-16T02:06:14.578Z,18.37
2023-02-16T02:08:44.972Z,27.90
2023-02-16T02:11:14.240Z,19.10
2023-02-16T02:13:55.614Z,19.13
2023-02-16T02:16:24.593Z,21.33
2023-02-16T02:18:51.579Z,17.87
2023-02-16T02:22:06.929Z,22.70
2023-02-16T02:24:42.545Z,20.60
2023-02-16T02:27:26.665Z,21.97
2023-02-16T02:30:13.261Z,21.20
2023-02-16T02:32:51.586Z,16.80
2023-02-16T02:35:25.007Z,24.13
2023-02-16T02:37:57.605Z,21.97
2023-02-16T02:40:43.145Z,24.47
2023-02-16T02:43:14.271Z,24.63
2023-02-16T02:45:45.440Z,24.70
2023-02-16T02:48:14.900Z,23.27
2023-02-16T02:51:04.928Z,21.53
2023-02-16T02:53:38.509Z,24.13
2023-02-16T02:56:23.847Z,25.00
2023-02-16T02:59:12.300Z,19.67
2023-02-16T03:01:40.643Z,24.20
2023-02-16T03:04:08.218Z,22.17
2023-02-16T03:06:38.045Z,18.93
2023-02-16T03:09:06.665Z,21.43
2023-02-16T03:11:51.815Z,24.33
2023-02-16T03:14:39.998Z,17.87
2023-02-16T03:17:35.629Z,26.53
2023-02-16T03:20:23.075Z,19.43
2023-02-16T03:23:09.376Z,22.30
2023-02-16T03:25:55.874Z,21.40
2023-02-16T03:28:43.319Z,22.23
2023-02-16T03:31:11.790Z,26.63
2023-02-16T03:33:38.844Z,23.50
2023-02-16T03:36:05.627Z,22.97
2023-02-16T03:38:32.308Z,18.90
2023-02-16T03:40:58.831Z,20.23
2023-02-16T03:43:26.455Z,24.23
2023-02-16T03:45:53.100Z,21.60
2023-02-16T03:48:19.687Z,23.40
2023-02-16T03:50:46.185Z,21.07
2023-02-16T03:53:12.760Z,22.53
2023-02-16T03:55:43.722Z,24.43
2023-02-16T03:58:11.121Z,23.77
2023-02-16T04:00:37.997Z,22.50
2023-02-16T04:03:05.508Z,22.53
2023-02-16T04:05:32.273Z,26.60
2023-02-16T04:07:59.466Z,28.70
2023-02-16T04:10:25.943Z,23.93
2023-02-16T04:12:52.724Z,23.77
2023-02-16T04:15:21.080Z,23.63
2023-02-16T04:17:49.315Z,28.37
2023-02-16T04:20:17.555Z,28.20
2023-02-16T04:22:44.834Z,26.10
2023-02-16T04:25:11.806Z,27.10
2023-02-16T04:27:38.562Z,24.33
2023-02-16T04:30:05.942Z,22.93
2023-02-16T04:32:32.910Z,22.13
2023-02-16T04:34:59.502Z,29.57
2023-02-16T04:37:25.989Z,28.27
2023-02-16T04:39:52.592Z,27.07
2023-02-16T04:42:19.070Z,27.73
2023-02-16T04:44:45.577Z,24.27
2023-02-16T04:47:12.416Z,24.80
2023-02-16T04:49:38.906Z,25.70
2023-02-16T04:52:05.859Z,24.67
2023-02-16T04:54:32.736Z,27.40
2023-02-16T04:56:59.709Z,26.63
2023-02-16T04:59:26.346Z,22.87
2023-02-16T05:01:55.574Z,27.67
2023-02-16T05:04:22.111Z,35.87
2023-02-16T05:06:48.554Z,25.57
2023-02-16T05:09:15.032Z,30.20
2023-02-16T05:11:59.976Z,27.73
2023-02-16T05:14:46.887Z,28.10
2023-02-16T05:17:23.930Z,27.07
2023-02-16T05:19:54.784Z,30.37
2023-02-16T05:22:21.568Z,29.20
2023-02-16T05:24:48.542Z,30.47
2023-02-16T05:27:16.451Z,29.60
2023-02-16T05:29:43.183Z,26.23
2023-02-16T05:32:09.949Z,28.40
2023-02-16T05:34:36.725Z,25.03
2023-02-16T05:37:03.224Z,27.80
2023-02-16T05:39:29.949Z,32.53
2023-02-16T05:41:56.601Z,25.40
2023-02-16T05:44:23.115Z,29.90
2023-02-16T05:46:49.906Z,33.73
2023-02-16T05:49:17.052Z,30.33
2023-02-16T05:51:43.539Z,30.20
2023-02-16T05:54:17.132Z,29.90
2023-02-16T05:56:47.754Z,33.00
2023-02-16T05:59:14.863Z,35.27
2023-02-16T06:01:41.420Z,31.80
2023-02-16T06:04:08.738Z,35.67
2023-02-16T06:06:35.860Z,35.80
2023-02-16T06:09:03.104Z,32.93
2023-02-16T06:11:38.465Z,40.43
2023-02-16T06:14:15.888Z,32.93
2023-02-16T06:16:43.321Z,29.90
2023-02-16T06:19:10.248Z,32.53
2023-02-16T06:21:37.176Z,32.90
2023-02-16T06:24:03.870Z,31.47
2023-02-16T06:26:30.399Z,33.70
2023-02-16T06:28:56.921Z,34.10
2023-02-16T06:31:25.018Z,34.33
2023-02-16T06:33:51.610Z,37.90
2023-02-16T06:36:18.462Z,30.93
2023-02-16T06:38:45.500Z,37.03
2023-02-16T06:41:13.005Z,32.37
2023-02-16T06:43:39.902Z,35.67
2023-02-16T06:46:06.335Z,29.83
2023-02-16T06:48:32.757Z,31.90
2023-02-16T06:51:18.303Z,38.23
2023-02-16T06:53:45.105Z,34.17
2023-02-16T06:56:11.471Z,33.97
2023-02-16T06:58:37.930Z,30.43
2023-02-16T07:01:04.885Z,29.37
2023-02-16T07:03:31.482Z,31.80
2023-02-16T07:06:16.639Z,33.13
2023-02-16T07:08:43.019Z,31.67
2023-02-16T07:11:28.270Z,37.37
2023-02-16T07:13:54.974Z,38.83
2023-02-16T07:16:21.448Z,44.20
2023-02-16T07:19:06.909Z,46.10
2023-02-16T07:21:33.475Z,34.77
2023-02-16T07:23:59.858Z,34.73
2023-02-16T07:26:26.256Z,33.70
2023-02-16T07:28:52.702Z,34.83
2023-02-16T07:31:19.661Z,32.87
2023-02-16T07:33:46.170Z,33.73
2023-02-16T07:36:13.197Z,32.37
2023-02-16T07:38:41.808Z,34.83
2023-02-16T07:41:09.879Z,30.30
2023-02-16T07:43:37.656Z,32.57
2023-02-16T07:46:05.378Z,32.53
2023-02-16T07:48:31.857Z,35.03
2023-02-16T07:50:58.853Z,33.03
2023-02-16T07:53:25.253Z,30.63
2023-02-16T07:55:51.613Z,30.57
2023-02-16T07:58:30.062Z,25.70
2023-02-16T08:00:57.879Z,36.60
2023-02-16T08:03:24.499Z,37.03
2023-02-16T08:05:51.101Z,29.90
2023-02-16T08:08:17.497Z,32.83
2023-02-16T08:10:44.269Z,33.93
2023-02-16T08:13:10.642Z,34.03
2023-02-16T08:15:37.032Z,32.47
2023-02-16T08:18:03.832Z,35.33
2023-02-16T08:20:46.023Z,33.97
2023-02-16T08:23:16.722Z,28.93
2023-02-16T08:25:43.970Z,32.20
2023-02-16T08:28:14.971Z,34.77
2023-02-16T08:30:41.352Z,31.77
2023-02-16T08:33:07.694Z,33.73
2023-02-16T08:35:38.169Z,36.33
2023-02-16T08:38:09.118Z,40.60
2023-02-16T08:40:35.563Z,34.80
2023-02-16T08:43:01.941Z,32.60
2023-02-16T08:45:29.596Z,38.77
2023-02-16T08:47:56.032Z,37.73
2023-02-16T08:50:22.560Z,36.40
2023-02-16T08:52:49.062Z,32.57
2023-02-16T08:55:15.552Z,33.20
2023-02-16T08:57:41.938Z,32.97
2023-02-16T09:00:27.023Z,33.43
2023-02-16T09:02:53.932Z,37.07
2023-02-16T09:05:20.378Z,33.77
2023-02-16T09:07:46.811Z,30.23
2023-02-16T09:10:13.753Z,33.83
2023-02-16T09:12:40.125Z,32.17
2023-02-16T09:15:06.644Z,30.40
2023-02-16T09:17:33.050Z,32.13
2023-02-16T09:19:59.562Z,30.83
2023-02-16T09:22:26.935Z,33.23
2023-02-16T09:24:53.330Z,33.40
2023-02-16T09:27:20.069Z,33.50
2023-02-16T09:29:46.458Z,33.33
2023-02-16T09:32:15.296Z,38.13
2023-02-16T09:34:43.612Z,30.13
2023-02-16T09:37:10.234Z,37.63
2023-02-16T09:39:37.020Z,33.13
2023-02-16T09:42:15.565Z,34.80
2023-02-16T09:44:44.942Z,27.63
2023-02-16T09:47:18.440Z,30.53
2023-02-16T09:49:45.246Z,33.90
2023-02-16T09:52:18.625Z,33.20
2023-02-16T09:54:50.304Z,30.53
2023-02-16T09:57:22.974Z,27.43
2023-02-16T09:59:49.754Z,32.27
2023-02-16T10:02:16.443Z,28.40
2023-02-16T10:05:02.001Z,35.23
2023-02-16T10:07:34.203Z,33.03
2023-02-16T10:10:00.943Z,31.27
2023-02-16T10:12:31.310Z,31.63
2023-02-16T10:15:05.996Z,30.73
2023-02-16T10:17:38.724Z,32.23
2023-02-16T10:20:11.873Z,35.97
2023-02-16T10:22:40.997Z,36.23
2023-02-16T10:25:32.286Z,34.43
2023-02-16T10:28:05.113Z,32.73
2023-02-16T10:30:32.454Z,30.87
2023-02-16T10:33:01.940Z,33.70
2023-02-16T10:35:46.285Z,31.80
2023-02-16T10:38:18.172Z,34.83
2023-02-16T10:40:57.354Z,36.17
2023-02-16T10:43:23.938Z,34.33
2023-02-16T10:45:52.895Z,35.30
2023-02-16T10:48:23.238Z,29.83
2023-02-16T10:51:07.519Z,38.67
2023-02-16T10:53:37.136Z,35.83
2023-02-16T10:56:20.851Z,38.33
2023-02-16T10:58:47.623Z,33.53
2023-02-16T11:01:18.608Z,32.47
2023-02-16T11:03:47.634Z,36.87
2023-02-16T11:06:18.822Z,33.33
2023-02-16T11:08:51.156Z,37.53
2023-02-16T11:11:18.866Z,29.63
2023-02-16T11:13:48.852Z,35.67
2023-02-16T11:16:20.591Z,35.77
2023-02-16T11:18:49.667Z,31.67
2023-02-16T11:21:16.943Z,35.83
2023-02-16T11:23:44.034Z,33.67
2023-02-16T11:26:10.499Z,32.77
2023-02-16T11:28:42.778Z,34.70
2023-02-16T11:31:18.678Z,35.57
2023-02-16T11:34:00.110Z,32.40
2023-02-16T11:36:47.294Z,39.07
2023-02-16T11:39:14.080Z,31.43
2023-02-16T11:41:46.270Z,36.77
2023-02-16T11:44:31.316Z,34.63
2023-02-16T11:46:58.914Z,37.80
2023-02-16T11:49:30.878Z,33.20
2023-02-16T11:51:57.618Z,35.23
2023-02-16T11:54:24.028Z,36.17
2023-02-16T11:57:03.968Z,37.20
2023-02-16T11:59:34.174Z,31.43
2023-02-16T12:02:08.555Z,34.13
2023-02-16T12:04:49.085Z,32.17
2023-02-16T12:07:32.909Z,37.50
2023-02-16T12:10:00.033Z,36.30
2023-02-16T12:12:36.093Z,38.40
2023-02-16T12:15:19.466Z,37.73
2023-02-16T12:18:06.247Z,33.07
2023-02-16T12:20:50.135Z,35.30
2023-02-16T12:23:35.478Z,32.70
2023-02-16T12:26:21.437Z,36.67
2023-02-16T12:28:47.893Z,36.60
2023-02-16T12:31:22.156Z,33.80
2023-02-16T12:33:53.830Z,32.90
2023-02-16T12:36:25.460Z,42.93
2023-02-16T12:38:51.934Z,31.90
2023-02-16T12:41:37.328Z,35.37
2023-02-16T12:44:06.964Z,40.33
2023-02-16T12:46:39.280Z,34.17
2023-02-16T12:49:15.062Z,41.00
2023-02-16T12:51:45.878Z,34.20
2023-02-16T12:54:29.957Z,33.90
2023-02-16T12:57:12.482Z,29.57
2023-02-16T12:59:43.794Z,31.37
2023-02-16T13:02:36.535Z,35.67
2023-02-16T13:05:08.901Z,33.97
2023-02-16T13:07:35.270Z,31.37
2023-02-16T13:10:04.226Z,36.17
2023-02-16T13:12:37.268Z,35.60
2023-02-16T13:15:13.171Z,33.63
2023-02-16T13:17:43.211Z,37.77
2023-02-16T13:20:17.325Z,32.07
2023-02-16T13:22:53.938Z,33.80
2023-02-16T13:25:35.671Z,30.40
2023-02-16T13:28:24.712Z,40.33
2023-02-16T13:31:22.335Z,32.03
2023-02-16T13:34:00.843Z,30.80
2023-02-16T13:36:38.964Z,32.77
2023-02-16T13:39:20.501Z,29.00
2023-02-16T13:41:55.499Z,42.23
2023-02-16T13:44:23.661Z,32.90
2023-02-16T13:46:52.712Z,35.43
2023-02-16T13:49:42.170Z,31.93
2023-02-16T13:52:09.930Z,33.20
2023-02-16T13:54:39.859Z,28.57
2023-02-16T13:57:11.925Z,33.30
2023-02-16T13:59:38.275Z,35.07
2023-02-16T14:02:10.964Z,28.60
2023-02-16T14:04:37.425Z,25.70
2023-02-16T14:07:04.648Z,32.93
2023-02-16T14:09:33.539Z,33.03
2023-02-16T14:12:02.972Z,34.00
2023-02-16T14:14:38.533Z,32.43
2023-02-16T14:17:14.277Z,31.03
2023-02-16T14:19:51.734Z,36.60
2023-02-16T14:22:21.249Z,33.33
2023-02-16T14:24:58.465Z,35.73
2023-02-16T14:27:43.205Z,34.57
2023-02-16T14:30:14.470Z,30.83
2023-02-16T14:32:45.812Z,36.50
2023-02-16T14:35:20.696Z,29.40
2023-02-16T14:37:55.459Z,31.43
2023-02-16T14:40:38.582Z,34.00
2023-02-16T14:43:11.795Z,32.97
2023-02-16T14:45:49.109Z,27.73
2023-02-16T14:48:22.404Z,33.90
2023-02-16T14:51:10.004Z,31.40
2023-02-16T14:53:55.505Z,30.90
2023-02-16T14:56:28.426Z,34.27
2023-02-16T14:58:57.787Z,35.43
2023-02-16T15:01:24.911Z,35.50
2023-02-16T15:03:54.400Z,32.50
2023-02-16T15:06:23.116Z,33.47
2023-02-16T15:08:56.946Z,34.40
2023-02-16T15:11:31.059Z,28.57
2023-02-16T15:14:05.572Z,35.70
2023-02-16T15:16:32.503Z,29.53
2023-02-16T15:19:02.374Z,30.87
2023-02-16T15:21:30.511Z,33.97
2023-02-16T15:23:58.328Z,30.77
2023-02-16T15:26:26.399Z,36.97
2023-02-16T15:28:53.029Z,33.67
2023-02-16T15:31:23.643Z,34.50
2023-02-16T15:33:57.892Z,36.47
2023-02-16T15:36:31.694Z,30.17
2023-02-16T15:39:05.463Z,34.67
2023-02-16T15:41:36.314Z,35.87
2023-02-16T15:44:03.995Z,40.73
2023-02-16T15:46:38.376Z,35.20
2023-02-16T15:49:20.422Z,34.87
2023-02-16T15:51:47.680Z,40.47
2023-02-16T15:54:20.869Z,29.67
2023-02-16T15:56:48.322Z,35.83
2023-02-16T15:59:35.361Z,31.03
2023-02-16T16:02:22.149Z,33.47
2023-02-16T16:04:48.550Z,38.53
2023-02-16T16:07:17.341Z,31.83
2023-02-16T16:09:45.135Z,34.90
2023-02-16T16:12:13.340Z,30.60
2023-02-16T16:14:42.618Z,35.07
2023-02-16T16:17:13.392Z,33.07
2023-02-16T16:19:40.242Z,37.87
2023-02-16T16:22:26.275Z,33.43
2023-02-16T16:24:52.646Z,36.17
2023-02-16T16:27:28.260Z,36.00
2023-02-16T16:30:09.636Z,38.63
2023-02-16T16:32:37.643Z,33.83
2023-02-16T16:35:30.495Z,57.53
2023-02-16T16:37:56.884Z,38.87
2023-02-16T16:40:25.790Z,42.30
2023-02-16T16:43:04.580Z,39.97
2023-02-16T16:45:39.366Z,36.30
2023-02-16T16:48:15.255Z,45.40
2023-02-16T16:50:42.576Z,37.10
2023-02-16T16:53:38.112Z,34.60
2023-02-16T16:56:08.931Z,37.57
2023-02-16T16:58:35.676Z,36.93
2023-02-16T17:01:02.262Z,46.60
2023-02-16T17:03:30.526Z,37.80
2023-02-16T17:05:57.696Z,40.60
2023-02-16T17:08:24.080Z,33.17
2023-02-16T17:10:50.515Z,41.73
2023-02-16T17:13:19.674Z,40.50
2023-02-16T17:15:49.180Z,40.83
2023-02-16T17:18:17.031Z,38.93
2023-02-16T17:20:44.605Z,41.40
2023-02-16T17:23:11.739Z,39.53
2023-02-16T17:25:38.752Z,35.00
2023-02-16T17:28:05.521Z,41.83
2023-02-16T17:30:32.521Z,33.27
2023-02-16T17:32:59.449Z,36.70
2023-02-16T17:35:25.990Z,42.63
2023-02-16T17:37:52.408Z,44.27
2023-02-16T17:40:21.293Z,38.87
2023-02-16T17:42:48.070Z,33.17
2023-02-16T17:45:15.621Z,38.70
2023-02-16T17:47:45.435Z,47.47
2023-02-16T17:50:12.828Z,50.30
2023-02-16T17:52:39.477Z,40.87
2023-02-16T17:55:06.400Z,42.00
2023-02-16T17:57:33.166Z,55.93
2023-02-16T17:59:59.563Z,47.50
2023-02-16T18:02:27.744Z,39.40
2023-02-16T18:04:54.201Z,43.97
2023-02-16T18:07:20.885Z,43.93
2023-02-16T18:09:48.442Z,41.73
2023-02-16T18:12:15.196Z,59.33
2023-02-16T18:14:41.632Z,38.87
2023-02-16T18:17:08.051Z,48.13
2023-02-16T18:19:34.456Z,42.07
2023-02-16T18:22:00.939Z,40.80
2023-02-16T18:24:27.585Z,43.57
2023-02-16T18:26:55.374Z,34.27
2023-02-16T18:29:22.036Z,47.00
2023-02-16T18:31:48.561Z,37.73
2023-02-16T18:34:15.446Z,44.47
2023-02-16T18:36:41.969Z,39.33
2023-02-16T18:39:09.271Z,36.67
2023-02-16T18:41:36.045Z,37.03
2023-02-16T18:44:03.204Z,37.03
2023-02-16T18:46:29.655Z,35.00
2023-02-16T18:48:56.095Z,36.80
2023-02-16T18:51:25.744Z,37.90
2023-02-16T18:53:52.143Z,39.53
2023-02-16T18:56:18.979Z,36.50
2023-02-16T18:58:45.580Z,39.83
2023-02-16T19:01:16.465Z,49.80
2023-02-16T19:03:43.181Z,43.40
2023-02-16T19:06:09.846Z,39.00
2023-02-16T19:08:36.272Z,40.80
2023-02-16T19:11:03.073Z,62.53
2023-02-16T19:13:29.494Z,52.93
2023-02-16T19:15:56.868Z,43.33
2023-02-16T19:18:24.196Z,37.00
2023-02-16T19:20:50.815Z,40.10
2023-02-16T19:23:17.671Z,43.83
2023-02-16T19:25:44.295Z,49.67
2023-02-16T19:28:10.692Z,41.17
2023-02-16T19:30:37.123Z,42.77
2023-02-16T19:33:03.706Z,39.47
2023-02-16T19:35:30.138Z,40.60
2023-02-16T19:37:56.862Z,44.80
2023-02-16T19:40:23.266Z,47.23
2023-02-16T19:42:49.698Z,41.63
2023-02-16T19:45:16.149Z,45.20
2023-02-16T19:47:42.527Z,43.13
2023-02-16T19:50:09.085Z,38.97
2023-02-16T19:52:35.624Z,46.90
2023-02-16T19:55:01.978Z,52.47
2023-02-16T19:57:29.038Z,36.93
2023-02-16T19:59:55.455Z,45.07
2023-02-16T20:02:21.894Z,43.90
2023-02-16T20:04:48.334Z,36.63
2023-02-16T20:07:14.745Z,37.37
2023-02-16T20:09:41.144Z,39.70
2023-02-16T20:12:07.612Z,41.87
2023-02-16T20:14:34.013Z,39.50
2023-02-16T20:17:00.449Z,40.70
2023-02-16T20:19:26.904Z,41.20
2023-02-16T20:21:53.304Z,40.80
2023-02-16T20:24:20.386Z,43.73
2023-02-16T20:26:49.336Z,38.20
2023-02-16T20:29:16.791Z,34.53
2023-02-16T20:31:47.254Z,41.50
2023-02-16T20:34:13.772Z,42.27
2023-02-16T20:36:40.769Z,46.37
2023-02-16T20:39:07.469Z,43.90
2023-02-16T20:41:35.288Z,40.97
2023-02-16T20:44:02.946Z,44.40
2023-02-16T20:46:29.447Z,40.67
2023-02-16T20:48:55.872Z,42.93
2023-02-16T20:51:22.739Z,45.03
2023-02-16T20:53:49.352Z,41.40
2023-02-16T20:56:17.112Z,39.63
2023-02-16T20:58:44.754Z,46.00
2023-02-16T21:01:15.948Z,41.87
2023-02-16T21:03:42.787Z,43.27
2023-02-16T21:06:09.542Z,38.50
2023-02-16T21:08:36.444Z,40.53
2023-02-16T21:11:03.305Z,45.17
2023-02-16T21:13:29.989Z,41.07
2023-02-16T21:15:56.459Z,37.20
2023-02-16T21:18:22.904Z,38.77
2023-02-16T21:20:49.367Z,32.30
2023-02-16T21:23:16.040Z,35.53
2023-02-16T21:25:42.620Z,37.43
2023-02-16T21:28:09.077Z,40.60
2023-02-16T21:30:35.505Z,35.80
2023-02-16T21:33:01.869Z,39.17
2023-02-16T21:35:28.364Z,44.80
2023-02-16T21:37:55.073Z,42.60
2023-02-16T21:40:40.085Z,37.80
2023-02-16T21:43:06.509Z,42.37
2023-02-16T21:45:32.926Z,36.57
2023-02-16T21:48:18.233Z,34.43
2023-02-16T21:50:44.619Z,36.80
2023-02-16T21:53:11.004Z,37.97
2023-02-16T21:55:56.933Z,38.30
2023-02-16T21:58:26.592Z,44.73
2023-02-16T22:00:53.750Z,42.07
2023-02-16T22:03:20.622Z,39.57
2023-02-16T22:05:47.393Z,38.57
2023-02-16T22:08:14.652Z,42.37
2023-02-16T22:10:41.114Z,37.97
2023-02-16T22:13:07.606Z,41.80
2023-02-16T22:15:35.295Z,42.00
2023-02-16T22:18:01.710Z,39.40
2023-02-16T22:20:28.109Z,36.43
2023-02-16T22:22:54.555Z,37.40
2023-02-16T22:25:22.930Z,39.47
2023-02-16T22:27:49.755Z,35.90
2023-02-16T22:30:16.270Z,34.07
2023-02-16T22:32:42.661Z,31.60
2023-02-16T22:35:09.074Z,36.30
2023-02-16T22:37:35.436Z,31.63
2023-02-16T22:40:01.884Z,31.93
2023-02-16T22:42:28.785Z,34.97
2023-02-16T22:44:55.344Z,26.67
2023-02-16T22:47:21.755Z,30.10
2023-02-16T22:49:48.168Z,32.07
2023-02-16T22:52:14.545Z,32.50
2023-02-16T22:54:40.968Z,31.63
2023-02-16T22:57:07.443Z,30.40
2023-02-16T22:59:34.015Z,37.47
2023-02-16T23:02:00.441Z,37.13
2023-02-16T23:04:27.437Z,30.67
2023-02-16T23:06:53.811Z,33.30
2023-02-16T23:09:21.140Z,27.80
2023-02-16T23:11:48.132Z,27.87
2023-02-16T23:14:17.566Z,29.87
2023-02-16T23:16:45.486Z,26.93
2023-02-16T23:19:13.612Z,31.60
2023-02-16T23:21:40.426Z,32.87
2023-02-16T23:24:06.871Z,26.37
2023-02-16T23:26:33.341Z,22.17
2023-02-16T23:29:00.881Z,26.60
2023-02-16T23:31:30.375Z,24.10
2023-02-16T23:33:57.083Z,23.87
2023-02-16T23:36:23.496Z,19.87
2023-02-16T23:38:49.902Z,21.23
2023-02-16T23:41:16.339Z,20.53
2023-02-16T23:43:42.781Z,26.13
2023-02-16T23:46:09.901Z,22.80
2023-02-16T23:48:36.561Z,22.90
2023-02-16T23:51:02.931Z,22.37
2023-02-16T23:53:29.334Z,21.53
2023-02-16T23:56:14.098Z,24.40
2023-02-16T23:58:41.454Z,22.63
